sensor_id;sensor_type;location;lat;lon;timestamp;pressure;altitude;pressure_sealevel;temperature;humidity
44131;BME280;29792;48.726;9.248;2024-01-15T00:00:32;95824.56;;;-1.69;97.58
44131;BME280;29792;48.726;9.248;2024-01-15T00:02:58;95833.50;;;-1.64;98.35
44131;BME280;29792;48.726;9.248;2024-01-15T00:05:23;95827.44;;;-1.60;97.67
44131;BME280;29792;48.726;9.248;2024-01-15T00:07:48;95829.72;;;-1.55;97.59
44131;BME280;29792;48.726;9.248;2024-01-15T00:10:14;95822.00;;;-1.52;96.88
44131;BME280;29792;48.726;9.248;2024-01-15T00:12:39;95820.38;;;-1.53;96.49
44131;BME280;29792;48.726;9.248;2024-01-15T00:15:04;95811.16;;;-1.52;97.13
44131;BME280;29792;48.726;9.248;2024-01-15T00:17:30;95811.91;;;-1.50;95.61
44131;BME280;29792;48.726;9.248;2024-01-15T00:19:55;95815.47;;;-1.55;95.91
44131;BME280;29792;48.726;9.248;2024-01-15T00:22:20;95805.50;;;-1.56;95.31
44131;BME280;29792;48.726;9.248;2024-01-15T00:24:46;95805.56;;;-1.58;95.36
44131;BME280;29792;48.726;9.248;2024-01-15T00:27:11;95797.38;;;-1.61;95.52
44131;BME280;29792;48.726;9.248;2024-01-15T00:29:36;95799.19;;;-1.63;94.80
44131;BME280;29792;48.726;9.248;2024-01-15T00:32:01;95806.94;;;-1.68;95.01
44131;BME280;29792;48.726;9.248;2024-01-15T00:34:27;95799.66;;;-1.72;95.23
44131;BME280;29792;48.726;9.248;2024-01-15T00:36:52;95798.16;;;-1.76;94.78
44131;BME280;29792;48.726;9.248;2024-01-15T00:39:17;95800.03;;;-1.80;95.05
44131;BME280;29792;48.726;9.248;2024-01-15T00:41:42;95793.72;;;-1.87;95.05
44131;BME280;29792;48.726;9.248;2024-01-15T00:44:08;95800.50;;;-1.89;95.53
44131;BME280;29792;48.726;9.248;2024-01-15T00:46:33;95799.03;;;-1.93;95.53
44131;BME280;29792;48.726;9.248;2024-01-15T00:48:58;95794.13;;;-1.95;95.88
44131;BME280;29792;48.726;9.248;2024-01-15T00:51:23;95802.66;;;-1.99;95.79
44131;BME280;29792;48.726;9.248;2024-01-15T00:53:49;95797.06;;;-2.04;96.36
44131;BME280;29792;48.726;9.248;2024-01-15T00:56:14;95806.38;;;-2.06;96.46
44131;BME280;29792;48.726;9.248;2024-01-15T00:58:39;95814.72;;;-2.05;96.28
44131;BME280;29792;48.726;9.248;2024-01-15T01:01:04;95804.81;;;-2.08;96.32
44131;BME280;29792;48.726;9.248;2024-01-15T01:03:30;95807.31;;;-2.08;96.37
44131;BME280;29792;48.726;9.248;2024-01-15T01:05:55;95809.09;;;-2.10;97.06
44131;BME280;29792;48.726;9.248;2024-01-15T01:08:20;95803.06;;;-2.06;96.17
44131;BME280;29792;48.726;9.248;2024-01-15T01:10:45;95808.06;;;-2.06;96.51
44131;BME280;29792;48.726;9.248;2024-01-15T01:13:10;95799.06;;;-2.10;97.26
44131;BME280;29792;48.726;9.248;2024-01-15T01:15:36;95791.63;;;-2.12;97.28
44131;BME280;29792;48.726;9.248;2024-01-15T01:18:01;95792.44;;;-2.11;97.65
44131;BME280;29792;48.726;9.248;2024-01-15T01:20:27;95793.25;;;-2.11;98.16
44131;BME280;29792;48.726;9.248;2024-01-15T01:22:52;95798.19;;;-2.09;98.62
44131;BME280;29792;48.726;9.248;2024-01-15T01:25:17;95788.00;;;-2.06;98.74
44131;BME280;29792;48.726;9.248;2024-01-15T01:27:43;95792.88;;;-2.03;99.13
44131;BME280;29792;48.726;9.248;2024-01-15T01:30:08;95792.56;;;-1.97;98.92
44131;BME280;29792;48.726;9.248;2024-01-15T01:32:34;95791.59;;;-1.95;99.12
44131;BME280;29792;48.726;9.248;2024-01-15T01:34:59;95800.66;;;-1.92;99.56
44131;BME280;29792;48.726;9.248;2024-01-15T01:37:25;95791.28;;;-1.88;99.39
44131;BME280;29792;48.726;9.248;2024-01-15T01:39:51;95794.44;;;-1.85;99.54
44131;BME280;29792;48.726;9.248;2024-01-15T01:42:16;95786.69;;;-1.80;100.00
44131;BME280;29792;48.726;9.248;2024-01-15T01:44:41;95789.03;;;-1.77;99.33
44131;BME280;29792;48.726;9.248;2024-01-15T01:47:07;95796.41;;;-1.74;99.34
44131;BME280;29792;48.726;9.248;2024-01-15T01:49:33;95800.53;;;-1.73;99.45
44131;BME280;29792;48.726;9.248;2024-01-15T01:52:02;95802.97;;;-1.72;99.33
44131;BME280;29792;48.726;9.248;2024-01-15T01:54:31;95806.94;;;-1.68;100.00
44131;BME280;29792;48.726;9.248;2024-01-15T01:56:57;95802.56;;;-1.64;99.61
44131;BME280;29792;48.726;9.248;2024-01-15T01:59:23;95798.28;;;-1.62;99.85
44131;BME280;29792;48.726;9.248;2024-01-15T02:01:50;95793.84;;;-1.57;99.79
44131;BME280;29792;48.726;9.248;2024-01-15T02:04:16;95792.78;;;-1.53;99.93
44131;BME280;29792;48.726;9.248;2024-01-15T02:06:42;95790.03;;;-1.48;99.46
44131;BME280;29792;48.726;9.248;2024-01-15T02:09:07;95795.78;;;-1.46;99.89
44131;BME280;29792;48.726;9.248;2024-01-15T02:11:33;95796.59;;;-1.46;99.21
44131;BME280;29792;48.726;9.248;2024-01-15T02:13:58;95800.50;;;-1.40;99.91
44131;BME280;29792;48.726;9.248;2024-01-15T02:16:24;95800.22;;;-1.36;99.65
44131;BME280;29792;48.726;9.248;2024-01-15T02:18:49;95798.38;;;-1.32;98.96
44131;BME280;29792;48.726;9.248;2024-01-15T02:21:14;95789.06;;;-1.30;98.95
44131;BME280;29792;48.726;9.248;2024-01-15T02:23:39;95783.88;;;-1.27;99.35
44131;BME280;29792;48.726;9.248;2024-01-15T02:26:05;95788.97;;;-1.29;98.93
44131;BME280;29792;48.726;9.248;2024-01-15T02:28:30;95792.28;;;-1.28;98.77
44131;BME280;29792;48.726;9.248;2024-01-15T02:30:57;95791.41;;;-1.27;99.58
44131;BME280;29792;48.726;9.248;2024-01-15T02:33:22;95791.41;;;-1.27;99.38
44131;BME280;29792;48.726;9.248;2024-01-15T02:35:48;95788.97;;;-1.29;99.25
44131;BME280;29792;48.726;9.248;2024-01-15T02:38:15;95799.81;;;-1.28;99.42
44131;BME280;29792;48.726;9.248;2024-01-15T02:40:40;95783.94;;;-1.29;98.38
44131;BME280;29792;48.726;9.248;2024-01-15T02:43:06;95792.28;;;-1.28;98.45
44131;BME280;29792;48.726;9.248;2024-01-15T02:45:31;95794.00;;;-1.29;98.98
44131;BME280;29792;48.726;9.248;2024-01-15T02:47:56;95789.16;;;-1.32;98.58
44131;BME280;29792;48.726;9.248;2024-01-15T02:50:21;95788.41;;;-1.34;98.81
44131;BME280;29792;48.726;9.248;2024-01-15T02:52:47;95787.75;;;-1.37;98.04
44131;BME280;29792;48.726;9.248;2024-01-15T02:55:12;95778.63;;;-1.38;98.74
44131;BME280;29792;48.726;9.248;2024-01-15T02:57:37;95777.16;;;-1.42;98.43
44131;BME280;29792;48.726;9.248;2024-01-15T03:00:03;95779.03;;;-1.46;98.80
44131;BME280;29792;48.726;9.248;2024-01-15T03:02:29;95777.47;;;-1.48;98.43
44131;BME280;29792;48.726;9.248;2024-01-15T03:04:56;95773.50;;;-1.52;98.03
44131;BME280;29792;48.726;9.248;2024-01-15T03:07:21;95763.47;;;-1.52;98.21
44131;BME280;29792;48.726;9.248;2024-01-15T03:09:47;95765.34;;;-1.56;98.45
44131;BME280;29792;48.726;9.248;2024-01-15T03:12:12;95764.66;;;-1.60;98.89
44131;BME280;29792;48.726;9.248;2024-01-15T03:14:37;95764.03;;;-1.63;98.84
44131;BME280;29792;48.726;9.248;2024-01-15T03:17:03;95764.25;;;-1.68;98.73
44131;BME280;29792;48.726;9.248;2024-01-15T03:19:28;95759.50;;;-1.72;98.98
44131;BME280;29792;48.726;9.248;2024-01-15T03:21:53;95762.16;;;-1.75;99.38
44131;BME280;29792;48.726;9.248;2024-01-15T03:24:20;95760.53;;;-1.76;99.52
44131;BME280;29792;48.726;9.248;2024-01-15T03:26:45;95766.44;;;-1.77;99.05
44131;BME280;29792;48.726;9.248;2024-01-15T03:29:10;95755.59;;;-1.78;99.43
44131;BME280;29792;48.726;9.248;2024-01-15T03:31:35;95749.78;;;-1.78;99.79
44131;BME280;29792;48.726;9.248;2024-01-15T03:34:01;95755.75;;;-1.81;100.00
44131;BME280;29792;48.726;9.248;2024-01-15T03:36:26;95742.56;;;-1.84;100.00
44131;BME280;29792;48.726;9.248;2024-01-15T03:38:51;95737.59;;;-1.86;100.00
44131;BME280;29792;48.726;9.248;2024-01-15T03:41:16;95746.06;;;-1.87;100.00
44131;BME280;29792;48.726;9.248;2024-01-15T03:43:42;95744.44;;;-1.88;100.00
44131;BME280;29792;48.726;9.248;2024-01-15T03:46:07;95742.72;;;-1.87;100.00
44131;BME280;29792;48.726;9.248;2024-01-15T03:48:32;95736.81;;;-1.86;100.00
44131;BME280;29792;48.726;9.248;2024-01-15T03:50:57;95732.59;;;-1.86;100.00
44131;BME280;29792;48.726;9.248;2024-01-15T03:53:23;95734.22;;;-1.85;100.00
44131;BME280;29792;48.726;9.248;2024-01-15T03:55:49;95734.06;;;-1.82;100.00
44131;BME280;29792;48.726;9.248;2024-01-15T03:58:14;95735.63;;;-1.79;100.00
44131;BME280;29792;48.726;9.248;2024-01-15T04:00:40;95745.41;;;-1.75;100.00
44131;BME280;29792;48.726;9.248;2024-01-15T04:03:06;95736.84;;;-1.71;100.00
44131;BME280;29792;48.726;9.248;2024-01-15T04:05:31;95733.19;;;-1.65;100.00
44131;BME280;29792;48.726;9.248;2024-01-15T04:07:56;95728.91;;;-1.63;100.00
44131;BME280;29792;48.726;9.248;2024-01-15T04:10:21;95716.25;;;-1.62;100.00
44131;BME280;29792;48.726;9.248;2024-01-15T04:12:47;95720.22;;;-1.58;100.00
44131;BME280;29792;48.726;9.248;2024-01-15T04:15:12;95721.78;;;-1.55;100.00
44131;BME280;29792;48.726;9.248;2024-01-15T04:17:38;95716.56;;;-1.52;100.00
44131;BME280;29792;48.726;9.248;2024-01-15T04:20:03;95718.13;;;-1.49;100.00
44131;BME280;29792;48.726;9.248;2024-01-15T04:22:29;95714.72;;;-1.48;100.00
44131;BME280;29792;48.726;9.248;2024-01-15T04:24:54;95717.16;;;-1.47;100.00
44131;BME280;29792;48.726;9.248;2024-01-15T04:27:19;95724.34;;;-1.41;100.00
44131;BME280;29792;48.726;9.248;2024-01-15T04:29:44;95716.75;;;-1.39;100.00
44131;BME280;29792;48.726;9.248;2024-01-15T04:32:10;95718.25;;;-1.37;100.00
44131;BME280;29792;48.726;9.248;2024-01-15T04:34:35;95713.88;;;-1.33;100.00
44131;BME280;29792;48.726;9.248;2024-01-15T04:37:00;95711.22;;;-1.30;100.00
44131;BME280;29792;48.726;9.248;2024-01-15T04:39:26;95719.31;;;-1.25;100.00
44131;BME280;29792;48.726;9.248;2024-01-15T04:41:51;95715.91;;;-1.24;100.00
44131;BME280;29792;48.726;9.248;2024-01-15T04:44:16;95712.44;;;-1.22;100.00
44131;BME280;29792;48.726;9.248;2024-01-15T04:46:41;95716.44;;;-1.19;100.00
44131;BME280;29792;48.726;9.248;2024-01-15T04:49:08;95715.41;;;-1.15;100.00
44131;BME280;29792;48.726;9.248;2024-01-15T04:51:34;95724.63;;;-1.16;100.00
44131;BME280;29792;48.726;9.248;2024-01-15T04:53:59;95721.94;;;-1.12;100.00
44131;BME280;29792;48.726;9.248;2024-01-15T04:56:24;95714.16;;;-1.08;100.00
44131;BME280;29792;48.726;9.248;2024-01-15T04:58:50;95714.72;;;-1.03;100.00
44131;BME280;29792;48.726;9.248;2024-01-15T05:01:16;95726.31;;;-1.00;100.00
44131;BME280;29792;48.726;9.248;2024-01-15T05:03:41;95725.34;;;-0.98;100.00
44131;BME280;29792;48.726;9.248;2024-01-15T05:06:07;95721.00;;;-0.96;100.00
44131;BME280;29792;48.726;9.248;2024-01-15T05:08:32;95724.25;;;-0.94;100.00
44131;BME280;29792;48.726;9.248;2024-01-15T05:10:57;95719.97;;;-0.92;100.00
44131;BME280;29792;48.726;9.248;2024-01-15T05:13:22;95721.59;;;-0.91;100.00
44131;BME280;29792;48.726;9.248;2024-01-15T05:15:48;95719.00;;;-0.89;100.00
44131;BME280;29792;48.726;9.248;2024-01-15T05:18:13;95707.94;;;-0.87;100.00
44131;BME280;29792;48.726;9.248;2024-01-15T05:20:38;95703.56;;;-0.83;100.00
44131;BME280;29792;48.726;9.248;2024-01-15T05:23:03;95706.00;;;-0.82;100.00
44131;BME280;29792;48.726;9.248;2024-01-15T05:25:29;95696.75;;;-0.81;100.00
44131;BME280;29792;48.726;9.248;2024-01-15T05:27:54;95697.38;;;-0.78;100.00
44131;BME280;29792;48.726;9.248;2024-01-15T05:30:19;95693.88;;;-0.75;100.00
44131;BME280;29792;48.726;9.248;2024-01-15T05:32:44;95687.16;;;-0.74;100.00
44131;BME280;29792;48.726;9.248;2024-01-15T05:35:10;95685.44;;;-0.74;100.00
44131;BME280;29792;48.726;9.248;2024-01-15T05:37:35;95697.13;;;-0.73;99.98
44131;BME280;29792;48.726;9.248;2024-01-15T05:40:00;95697.13;;;-0.73;100.00
44131;BME280;29792;48.726;9.248;2024-01-15T05:42:25;95705.44;;;-0.72;100.00
44131;BME280;29792;48.726;9.248;2024-01-15T05:44:51;95697.91;;;-0.72;100.00
44131;BME280;29792;48.726;9.248;2024-01-15T05:47:16;95697.13;;;-0.73;100.00
44131;BME280;29792;48.726;9.248;2024-01-15T05:49:42;95701.34;;;-0.73;100.00
44131;BME280;29792;48.726;9.248;2024-01-15T05:52:08;95698.72;;;-0.72;100.00
44131;BME280;29792;48.726;9.248;2024-01-15T05:54:33;95704.56;;;-0.71;100.00
44131;BME280;29792;48.726;9.248;2024-01-15T05:56:58;95692.00;;;-0.71;100.00
44131;BME280;29792;48.726;9.248;2024-01-15T05:59:23;95691.09;;;-0.70;100.00
44131;BME280;29792;48.726;9.248;2024-01-15T06:01:49;95691.09;;;-0.70;100.00
44131;BME280;29792;48.726;9.248;2024-01-15T06:04:14;95693.59;;;-0.70;100.00
44131;BME280;29792;48.726;9.248;2024-01-15T06:06:39;95696.13;;;-0.70;100.00
44131;BME280;29792;48.726;9.248;2024-01-15T06:09:05;95691.00;;;-0.69;100.00
44131;BME280;29792;48.726;9.248;2024-01-15T06:11:31;95696.84;;;-0.68;100.00
44131;BME280;29792;48.726;9.248;2024-01-15T06:13:57;95696.03;;;-0.69;100.00
44131;BME280;29792;48.726;9.248;2024-01-15T06:16:23;95692.00;;;-0.71;100.00
44131;BME280;29792;48.726;9.248;2024-01-15T06:18:49;95693.53;;;-0.69;100.00
44131;BME280;29792;48.726;9.248;2024-01-15T06:21:15;95685.19;;;-0.69;100.00
44131;BME280;29792;48.726;9.248;2024-01-15T06:23:41;95697.75;;;-0.69;100.00
44131;BME280;29792;48.726;9.248;2024-01-15T06:26:06;95699.44;;;-0.70;100.00
44131;BME280;29792;48.726;9.248;2024-01-15T06:28:31;95692.72;;;-0.69;100.00
44131;BME280;29792;48.726;9.248;2024-01-15T06:30:57;95697.75;;;-0.69;100.00
44131;BME280;29792;48.726;9.248;2024-01-15T06:33:23;95682.66;;;-0.69;100.00
44131;BME280;29792;48.726;9.248;2024-01-15T06:35:48;95675.13;;;-0.69;100.00
44131;BME280;29792;48.726;9.248;2024-01-15T06:38:14;95680.16;;;-0.69;100.00
44131;BME280;29792;48.726;9.248;2024-01-15T06:40:39;95674.22;;;-0.68;100.00
44131;BME280;29792;48.726;9.248;2024-01-15T06:43:10;95671.63;;;-0.67;100.00
44131;BME280;29792;48.726;9.248;2024-01-15T06:45:35;95671.72;;;-0.68;100.00
44131;BME280;29792;48.726;9.248;2024-01-15T06:48:01;95669.13;;;-0.67;100.00
44131;BME280;29792;48.726;9.248;2024-01-15T06:50:26;95665.78;;;-0.67;100.00
44131;BME280;29792;48.726;9.248;2024-01-15T06:52:51;95664.81;;;-0.65;100.00
44131;BME280;29792;48.726;9.248;2024-01-15T06:55:16;95658.97;;;-0.65;100.00
44131;BME280;29792;48.726;9.248;2024-01-15T06:57:42;95662.19;;;-0.63;100.00
44131;BME280;29792;48.726;9.248;2024-01-15T07:00:08;95649.63;;;-0.63;100.00
44131;BME280;29792;48.726;9.248;2024-01-15T07:02:34;95661.31;;;-0.62;100.00
44131;BME280;29792;48.726;9.248;2024-01-15T07:04:59;95652.94;;;-0.63;100.00
44131;BME280;29792;48.726;9.248;2024-01-15T07:07:24;95652.94;;;-0.63;100.00
44131;BME280;29792;48.726;9.248;2024-01-15T07:09:53;95643.69;;;-0.62;100.00
44131;BME280;29792;48.726;9.248;2024-01-15T07:12:19;95650.25;;;-0.60;100.00
44131;BME280;29792;48.726;9.248;2024-01-15T07:14:44;95646.84;;;-0.59;99.72
44131;BME280;29792;48.726;9.248;2024-01-15T07:17:09;95650.19;;;-0.58;99.32
44131;BME280;29792;48.726;9.248;2024-01-15T07:19:34;95650.88;;;-0.56;99.25
44131;BME280;29792;48.726;9.248;2024-01-15T07:22:00;95647.38;;;-0.54;99.58
44131;BME280;29792;48.726;9.248;2024-01-15T07:24:25;95652.25;;;-0.51;99.19
44131;BME280;29792;48.726;9.248;2024-01-15T07:26:50;95651.44;;;-0.51;98.89
44131;BME280;29792;48.726;9.248;2024-01-15T07:29:15;95668.06;;;-0.49;98.40
44131;BME280;29792;48.726;9.248;2024-01-15T07:31:47;95663.72;;;-0.47;97.54
44131;BME280;29792;48.726;9.248;2024-01-15T07:34:13;95663.56;;;-0.44;97.14
44131;BME280;29792;48.726;9.248;2024-01-15T07:36:38;95660.97;;;-0.42;97.43
44131;BME280;29792;48.726;9.248;2024-01-15T07:39:03;95662.59;;;-0.41;97.05
44131;BME280;29792;48.726;9.248;2024-01-15T07:41:29;95663.41;;;-0.41;96.23
44131;BME280;29792;48.726;9.248;2024-01-15T07:43:54;95660.75;;;-0.39;96.17
44131;BME280;29792;48.726;9.248;2024-01-15T07:46:19;95656.53;;;-0.39;96.45
44131;BME280;29792;48.726;9.248;2024-01-15T07:48:45;95655.75;;;-0.39;96.04
44131;BME280;29792;48.726;9.248;2024-01-15T07:51:10;95652.31;;;-0.38;95.71
44131;BME280;29792;48.726;9.248;2024-01-15T07:53:35;95655.47;;;-0.34;95.64
44131;BME280;29792;48.726;9.248;2024-01-15T07:56:01;95652.06;;;-0.33;95.77
44131;BME280;29792;48.726;9.248;2024-01-15T07:58:26;95656.22;;;-0.32;95.17
44131;BME280;29792;48.726;9.248;2024-01-15T08:00:51;95646.03;;;-0.31;95.57
44131;BME280;29792;48.726;9.248;2024-01-15T08:03:17;95660.22;;;-0.30;95.61
44131;BME280;29792;48.726;9.248;2024-01-15T08:05:42;95662.66;;;-0.28;95.68
44131;BME280;29792;48.726;9.248;2024-01-15T08:08:07;95666.06;;;-0.29;95.14
44131;BME280;29792;48.726;9.248;2024-01-15T08:10:33;95671.91;;;-0.29;94.61
44131;BME280;29792;48.726;9.248;2024-01-15T08:12:58;95664.44;;;-0.30;94.71
44131;BME280;29792;48.726;9.248;2024-01-15T08:15:23;95667.78;;;-0.30;94.05
44131;BME280;29792;48.726;9.248;2024-01-15T08:17:48;95671.81;;;-0.27;94.66
44131;BME280;29792;48.726;9.248;2024-01-15T08:20:14;95670.94;;;-0.26;94.26
44131;BME280;29792;48.726;9.248;2024-01-15T08:22:41;95680.78;;;-0.23;93.49
44131;BME280;29792;48.726;9.248;2024-01-15T08:25:06;95673.16;;;-0.22;93.19
44131;BME280;29792;48.726;9.248;2024-01-15T08:27:31;95665.63;;;-0.22;93.09
44131;BME280;29792;48.726;9.248;2024-01-15T08:29:57;95667.31;;;-0.22;93.38
44131;BME280;29792;48.726;9.248;2024-01-15T08:32:22;95668.84;;;-0.20;93.24
44131;BME280;29792;48.726;9.248;2024-01-15T08:34:47;95669.66;;;-0.19;93.14
44131;BME280;29792;48.726;9.248;2024-01-15T08:37:14;95673.72;;;-0.17;92.81
44131;BME280;29792;48.726;9.248;2024-01-15T08:39:39;95666.78;;;-0.13;93.36
44131;BME280;29792;48.726;9.248;2024-01-15T08:42:05;95665.72;;;-0.09;92.70
44131;BME280;29792;48.726;9.248;2024-01-15T08:44:30;95652.13;;;-0.07;92.66
44131;BME280;29792;48.726;9.248;2024-01-15T08:46:56;95652.75;;;-0.03;92.11
44131;BME280;29792;48.726;9.248;2024-01-15T08:49:21;95666.75;;;0.01;92.63
44131;BME280;29792;48.726;9.248;2024-01-15T08:51:46;95675.66;;;0.07;91.85
44131;BME280;29792;48.726;9.248;2024-01-15T08:54:13;95669.44;;;0.12;91.52
44131;BME280;29792;48.726;9.248;2024-01-15T08:56:38;95674.19;;;0.17;91.68
44131;BME280;29792;48.726;9.248;2024-01-15T08:59:05;95671.41;;;0.21;90.77
44131;BME280;29792;48.726;9.248;2024-01-15T09:01:30;95681.19;;;0.26;90.66
44131;BME280;29792;48.726;9.248;2024-01-15T09:03:56;95680.19;;;0.28;89.94
44131;BME280;29792;48.726;9.248;2024-01-15T09:06:21;95670.84;;;0.30;89.73
44131;BME280;29792;48.726;9.248;2024-01-15T09:08:46;95683.16;;;0.35;89.82
44131;BME280;29792;48.726;9.248;2024-01-15T09:11:12;95677.94;;;0.38;89.81
44131;BME280;29792;48.726;9.248;2024-01-15T09:13:37;95673.22;;;0.46;88.81
44131;BME280;29792;48.726;9.248;2024-01-15T09:16:03;95668.91;;;0.48;89.06
44131;BME280;29792;48.726;9.248;2024-01-15T09:18:28;95674.75;;;0.49;87.92
44131;BME280;29792;48.726;9.248;2024-01-15T09:20:54;95668.78;;;0.50;87.44
44131;BME280;29792;48.726;9.248;2024-01-15T09:23:19;95670.31;;;0.52;87.71
44131;BME280;29792;48.726;9.248;2024-01-15T09:25:45;95654.00;;;0.58;87.44
44131;BME280;29792;48.726;9.248;2024-01-15T09:28:10;95657.06;;;0.63;86.99
44131;BME280;29792;48.726;9.248;2024-01-15T09:30:35;95644.97;;;0.68;86.96
44131;BME280;29792;48.726;9.248;2024-01-15T09:33:01;95647.91;;;0.74;86.69
44131;BME280;29792;48.726;9.248;2024-01-15T09:35:26;95641.56;;;0.82;86.55
44131;BME280;29792;48.726;9.248;2024-01-15T09:37:52;95650.97;;;0.92;86.57
44131;BME280;29792;48.726;9.248;2024-01-15T09:40:17;95639.69;;;0.98;86.16
44131;BME280;29792;48.726;9.248;2024-01-15T09:42:44;95632.75;;;1.01;86.08
44131;BME280;29792;48.726;9.248;2024-01-15T09:45:10;95624.19;;;1.04;85.61
44131;BME280;29792;48.726;9.248;2024-01-15T09:47:37;95635.78;;;1.06;85.44
44131;BME280;29792;48.726;9.248;2024-01-15T09:50:03;95644.13;;;1.07;84.89
44131;BME280;29792;48.726;9.248;2024-01-15T09:52:30;95640.53;;;1.11;84.47
44131;BME280;29792;48.726;9.248;2024-01-15T09:54:56;95642.84;;;1.14;84.55
44131;BME280;29792;48.726;9.248;2024-01-15T09:57:22;95636.06;;;1.14;84.16
44131;BME280;29792;48.726;9.248;2024-01-15T09:59:48;95639.41;;;1.15;83.65
44131;BME280;29792;48.726;9.248;2024-01-15T10:02:14;95632.56;;;1.17;83.95
44131;BME280;29792;48.726;9.248;2024-01-15T10:04:42;95634.28;;;1.17;83.63
44131;BME280;29792;48.726;9.248;2024-01-15T10:07:08;95636.78;;;1.17;83.71
44131;BME280;29792;48.726;9.248;2024-01-15T10:09:34;95635.78;;;1.19;83.30
44131;BME280;29792;48.726;9.248;2024-01-15T10:11:59;95624.81;;;1.20;83.69
44131;BME280;29792;48.726;9.248;2024-01-15T10:14:25;95618.16;;;1.19;82.79
44131;BME280;29792;48.726;9.248;2024-01-15T10:16:50;95626.72;;;1.17;83.11
44131;BME280;29792;48.726;9.248;2024-01-15T10:19:15;95621.56;;;1.18;83.54
44131;BME280;29792;48.726;9.248;2024-01-15T10:21:40;95622.47;;;1.17;83.32
44131;BME280;29792;48.726;9.248;2024-01-15T10:24:06;95614.09;;;1.17;82.78
44131;BME280;29792;48.726;9.248;2024-01-15T10:26:32;95619.06;;;1.18;83.19
44131;BME280;29792;48.726;9.248;2024-01-15T10:29:00;95614.81;;;1.19;83.62
44131;BME280;29792;48.726;9.248;2024-01-15T10:31:26;95614.81;;;1.19;83.26
44131;BME280;29792;48.726;9.248;2024-01-15T10:33:52;95605.53;;;1.19;82.92
44131;BME280;29792;48.726;9.248;2024-01-15T10:36:17;95607.16;;;1.20;83.47
44131;BME280;29792;48.726;9.248;2024-01-15T10:38:43;95607.84;;;1.22;83.50
44131;BME280;29792;48.726;9.248;2024-01-15T10:41:09;95596.66;;;1.26;83.49
44131;BME280;29792;48.726;9.248;2024-01-15T10:43:34;95591.41;;;1.29;83.54
44131;BME280;29792;48.726;9.248;2024-01-15T10:45:59;95588.59;;;1.34;83.52
44131;BME280;29792;48.726;9.248;2024-01-15T10:48:26;95593.63;;;1.34;82.88
44131;BME280;29792;48.726;9.248;2024-01-15T10:50:53;95587.88;;;1.32;83.34
44131;BME280;29792;48.726;9.248;2024-01-15T10:53:18;95578.81;;;1.29;83.36
44131;BME280;29792;48.726;9.248;2024-01-15T10:55:46;95577.09;;;1.30;83.81
44131;BME280;29792;48.726;9.248;2024-01-15T10:58:14;95568.59;;;1.31;83.77
44131;BME280;29792;48.726;9.248;2024-01-15T11:00:39;95576.88;;;1.33;83.31
44131;BME280;29792;48.726;9.248;2024-01-15T11:03:06;95577.69;;;1.33;83.54
44131;BME280;29792;48.726;9.248;2024-01-15T11:05:57;95582.72;;;1.33;83.70
44131;BME280;29792;48.726;9.248;2024-01-15T11:08:24;95569.03;;;1.37;83.73
44131;BME280;29792;48.726;9.248;2024-01-15T11:10:53;95572.75;;;1.44;84.40
44131;BME280;29792;48.726;9.248;2024-01-15T11:13:21;95561.75;;;1.45;83.85
44131;BME280;29792;48.726;9.248;2024-01-15T11:16:04;95576.16;;;1.43;83.78
44131;BME280;29792;48.726;9.248;2024-01-15T11:26:35;95554.28;;;1.44;85.00
44131;BME280;29792;48.726;9.248;2024-01-15T11:29:05;95553.25;;;1.46;85.45
44131;BME280;29792;48.726;9.248;2024-01-15T11:34:01;95546.47;;;1.47;85.92
44131;BME280;29792;48.726;9.248;2024-01-15T11:44:23;95554.84;;;1.60;86.74
44131;BME280;29792;48.726;9.248;2024-01-15T11:52:32;95543.94;;;1.60;87.24
44131;BME280;29792;48.726;9.248;2024-01-15T11:55:10;95544.75;;;1.60;87.33
44131;BME280;29792;48.726;9.248;2024-01-15T11:58:07;95548.47;;;1.54;87.36
44131;BME280;29792;48.726;9.248;2024-01-15T12:00:33;95553.03;;;1.49;87.52
44131;BME280;29792;48.726;9.248;2024-01-15T12:02:58;95569.41;;;1.44;87.63
44131;BME280;29792;48.726;9.248;2024-01-15T12:05:23;95565.56;;;1.38;88.43
44131;BME280;29792;48.726;9.248;2024-01-15T12:07:49;95564.16;;;1.34;89.25
44131;BME280;29792;48.726;9.248;2024-01-15T12:10:17;95558.31;;;1.34;89.46
44131;BME280;29792;48.726;9.248;2024-01-15T12:12:59;95554.09;;;1.34;89.82
44131;BME280;29792;48.726;9.248;2024-01-15T12:15:27;95559.94;;;1.35;90.22
44131;BME280;29792;48.726;9.248;2024-01-15T12:18:01;95571.75;;;1.34;90.66
44131;BME280;29792;48.726;9.248;2024-01-15T12:20:28;95564.38;;;1.31;91.72
44131;BME280;29792;48.726;9.248;2024-01-15T12:22:53;95564.19;;;1.22;93.03
44131;BME280;29792;48.726;9.248;2024-01-15T12:25:20;95575.69;;;1.13;94.25
44131;BME280;29792;48.726;9.248;2024-01-15T12:27:46;95572.16;;;1.03;95.18
44131;BME280;29792;48.726;9.248;2024-01-15T12:30:12;95570.94;;;0.96;96.31
44131;BME280;29792;48.726;9.248;2024-01-15T12:32:38;95576.59;;;0.87;96.87
44131;BME280;29792;48.726;9.248;2024-01-15T12:35:03;95574.47;;;0.81;98.52
44131;BME280;29792;48.726;9.248;2024-01-15T12:37:29;95562.47;;;0.71;99.23
44131;BME280;29792;48.726;9.248;2024-01-15T12:39:55;95572.22;;;0.63;100.00
44131;BME280;29792;48.726;9.248;2024-01-15T12:42:21;95575.22;;;0.56;100.00
44131;BME280;29792;48.726;9.248;2024-01-15T12:44:47;95576.53;;;0.49;100.00
44131;BME280;29792;48.726;9.248;2024-01-15T12:47:12;95575.19;;;0.43;100.00
44131;BME280;29792;48.726;9.248;2024-01-15T12:49:37;95578.91;;;0.37;100.00
44131;BME280;29792;48.726;9.248;2024-01-15T12:52:03;95576.66;;;0.33;100.00
44131;BME280;29792;48.726;9.248;2024-01-15T12:54:28;95584.34;;;0.31;100.00
44131;BME280;29792;48.726;9.248;2024-01-15T12:56:53;95577.47;;;0.33;100.00
44131;BME280;29792;48.726;9.248;2024-01-15T12:59:19;95581.53;;;0.36;100.00
44131;BME280;29792;48.726;9.248;2024-01-15T13:01:45;95571.34;;;0.37;100.00
44131;BME280;29792;48.726;9.248;2024-01-15T13:04:11;95573.78;;;0.39;100.00
44131;BME280;29792;48.726;9.248;2024-01-15T13:06:37;95576.91;;;0.43;100.00
44131;BME280;29792;48.726;9.248;2024-01-15T13:09:05;95578.25;;;0.48;100.00
44131;BME280;29792;48.726;9.248;2024-01-15T13:11:31;95580.38;;;0.54;100.00
44131;BME280;29792;48.726;9.248;2024-01-15T13:13:56;95575.22;;;0.56;100.00
44131;BME280;29792;48.726;9.248;2024-01-15T13:16:22;95586.31;;;0.53;100.00